Time;durP1;ratioP1;P1;durP2;ratioP2;P2;SDS_P1;SDS_P2;PMS_P1;PMS_P2;Temp;Humidity;BMP_temperature;BMP_pressure;BME280_temperature;BME280_humidity;BME280_pressure;Samples;Min_cycle;Max_cycle;Signal;HPM_P1;HPM_P2
2022/10/28 00:01:42;;;;;;;0.20;0.20;;;13.30;99.90;;;;;;5006971;28;20520;-69
2022/10/28 00:04:07;;;;;;;0.00;0.00;;;13.30;99.90;;;;;;5006092;28;20175;-69
2022/10/28 00:06:35;;;;;;;0.00;0.00;;;13.30;99.90;;;;;;5004146;28;20206;-69
2022/10/28 00:09:01;;;;;;;0.00;0.00;;;13.30;99.90;;;;;;5010103;28;20540;-69
2022/10/28 00:11:32;;;;;;;0.00;0.00;;;13.30;99.90;;;;;;5012117;28;20182;-69
2022/10/28 00:14:00;;;;;;;0.00;0.00;;;13.30;99.90;;;;;;5008998;28;20180;-69
2022/10/28 00:16:29;;;;;;;0.00;0.00;;;13.30;99.90;;;;;;5015511;28;20193;-69
2022/10/28 00:18:56;;;;;;;0.10;0.10;;;13.40;99.90;;;;;;5012019;28;20185;-69
2022/10/28 00:21:25;;;;;;;0.20;0.20;;;13.40;99.90;;;;;;4996992;28;20233;-69
2022/10/28 00:23:52;;;;;;;0.00;0.00;;;13.40;99.90;;;;;;4997196;28;20210;-69
2022/10/28 00:26:26;;;;;;;0.00;0.00;;;13.40;99.90;;;;;;5012968;28;20634;-69
2022/10/28 00:28:56;;;;;;;0.00;0.00;;;13.40;99.90;;;;;;5007681;28;20202;-69
2022/10/28 00:31:24;;;;;;;0.10;0.10;;;13.40;99.90;;;;;;5011651;28;20524;-69
2022/10/28 00:33:49;;;;;;;0.10;0.10;;;13.40;99.90;;;;;;5002308;28;20302;-68
2022/10/28 00:36:26;;;;;;;0.00;0.00;;;13.40;99.90;;;;;;5004581;28;20183;-69
2022/10/28 00:38:54;;;;;;;0.22;0.22;;;13.40;99.90;;;;;;5007070;28;20182;-68
2022/10/28 00:41:27;;;;;;;0.45;0.45;;;13.30;99.90;;;;;;5002332;28;20186;-69
2022/10/28 00:43:55;;;;;;;0.00;0.00;;;13.30;99.90;;;;;;5012887;28;20186;-68
2022/10/28 00:46:43;;;;;;;0.00;0.00;;;13.30;99.90;;;;;;5014378;28;20265;-68
2022/10/28 00:49:17;;;;;;;0.10;0.10;;;13.30;99.90;;;;;;5014435;28;20222;-68
2022/10/28 00:51:45;;;;;;;0.00;0.00;;;13.20;99.90;;;;;;5001735;28;20182;-69
2022/10/28 00:54:11;;;;;;;0.00;0.00;;;13.20;99.90;;;;;;5005001;28;20192;-68
2022/10/28 00:56:42;;;;;;;0.43;0.43;;;13.20;99.90;;;;;;5013299;28;20183;-68
2022/10/28 00:59:15;;;;;;;0.00;0.00;;;13.10;99.90;;;;;;4998056;28;20650;-68
2022/10/28 01:01:40;;;;;;;0.00;0.00;;;13.10;99.90;;;;;;5013917;28;20233;-69
2022/10/28 01:04:07;;;;;;;0.00;0.00;;;13.10;99.90;;;;;;4999981;28;20187;-68
2022/10/28 01:06:33;;;;;;;0.00;0.00;;;13.10;99.90;;;;;;4995147;28;20269;-69
2022/10/28 01:08:59;;;;;;;0.43;0.43;;;13.10;99.90;;;;;;4999208;28;20183;-69
2022/10/28 01:11:58;;;;;;;0.05;0.05;;;13.10;99.90;;;;;;4998207;28;20184;-70
2022/10/28 01:14:59;;;;;;;0.10;0.10;;;13.10;99.90;;;;;;5001659;28;20193;-68
2022/10/28 01:17:49;;;;;;;0.13;0.13;;;13.10;99.90;;;;;;4999651;28;20179;-68
2022/10/28 01:20:32;;;;;;;0.15;0.15;;;13.20;99.90;;;;;;4997841;28;20259;-68
2022/10/28 01:23:13;;;;;;;0.00;0.00;;;13.20;99.90;;;;;;4997134;28;20235;-69
2022/10/28 01:25:44;;;;;;;0.00;0.00;;;13.20;99.90;;;;;;5014353;28;20218;-69
2022/10/28 01:28:12;;;;;;;0.00;0.00;;;13.20;99.90;;;;;;5008694;28;20674;-68
2022/10/28 01:31:02;;;;;;;0.20;0.20;;;13.20;99.90;;;;;;5009541;28;20226;-68
2022/10/28 01:33:48;;;;;;;0.00;0.00;;;13.20;99.90;;;;;;4999788;28;20521;-68
2022/10/28 01:36:31;;;;;;;0.28;0.28;;;13.20;99.90;;;;;;5014053;28;20201;-68
2022/10/28 01:39:17;;;;;;;0.10;0.10;;;13.20;99.90;;;;;;5006059;28;20206;-69
2022/10/28 01:41:59;;;;;;;0.28;0.28;;;13.20;99.90;;;;;;5007820;28;20753;-69
2022/10/28 01:44:36;;;;;;;0.00;0.00;;;13.20;99.90;;;;;;5004331;28;20346;-69
2022/10/28 01:47:13;;;;;;;0.10;0.10;;;13.20;99.90;;;;;;5014415;28;20301;-69
2022/10/28 01:49:50;;;;;;;0.00;0.00;;;13.20;99.90;;;;;;5004699;28;20540;-69
2022/10/28 01:52:21;;;;;;;0.10;0.10;;;13.20;99.90;;;;;;5014446;28;20182;-69
2022/10/28 01:54:52;;;;;;;0.10;0.10;;;13.20;99.90;;;;;;5002061;28;20184;-69
2022/10/28 01:57:19;;;;;;;0.30;0.30;;;13.20;99.90;;;;;;4995312;28;20270;-69
2022/10/28 01:59:47;;;;;;;0.35;0.30;;;13.20;99.90;;;;;;5001374;28;20179;-69
2022/10/28 02:02:14;;;;;;;1.55;0.30;;;13.20;99.90;;;;;;4998063;28;20270;-69
2022/10/28 02:04:39;;;;;;;0.00;0.00;;;13.20;99.90;;;;;;5000210;28;20175;-69
2022/10/28 02:07:05;;;;;;;0.00;0.00;;;13.20;99.90;;;;;;4999207;28;20215;-69
2022/10/28 02:09:45;;;;;;;0.00;0.00;;;13.30;99.90;;;;;;4994830;28;20183;-69
2022/10/28 02:12:24;;;;;;;0.10;0.10;;;13.30;99.90;;;;;;5007063;28;20261;-69
2022/10/28 02:15:11;;;;;;;0.00;0.00;;;13.30;99.90;;;;;;4997680;28;20183;-69
2022/10/28 02:17:39;;;;;;;0.00;0.00;;;13.30;99.90;;;;;;5003586;28;20183;-69
2022/10/28 02:20:32;;;;;;;0.08;0.08;;;13.30;99.90;;;;;;5009108;28;20225;-69
2022/10/28 02:23:14;;;;;;;0.32;0.32;;;13.30;99.90;;;;;;5013431;28;20178;-70
2022/10/28 02:25:55;;;;;;;0.15;0.15;;;13.30;99.90;;;;;;5012953;28;20218;-69
2022/10/28 02:28:33;;;;;;;0.00;0.00;;;13.20;99.90;;;;;;4995099;28;20585;-68
2022/10/28 02:31:06;;;;;;;0.10;0.10;;;13.20;99.90;;;;;;5004456;28;20218;-69
2022/10/28 02:33:37;;;;;;;0.00;0.00;;;13.20;99.90;;;;;;4993496;28;20278;-69
2022/10/28 02:36:07;;;;;;;0.08;0.08;;;13.20;99.90;;;;;;4999047;28;20271;-68
2022/10/28 02:38:45;;;;;;;0.38;0.38;;;13.20;99.90;;;;;;5013552;28;20171;-68
2022/10/28 02:41:30;;;;;;;0.03;0.03;;;13.20;99.90;;;;;;5010507;28;20535;-69
2022/10/28 02:44:05;;;;;;;0.00;0.00;;;13.20;99.90;;;;;;4996684;28;20265;-69
2022/10/28 02:46:34;;;;;;;0.05;0.05;;;13.20;99.90;;;;;;4998347;28;20214;-69
2022/10/28 02:49:08;;;;;;;0.00;0.00;;;13.20;99.90;;;;;;4993916;28;20770;-69
2022/10/28 02:51:37;;;;;;;1.40;1.30;;;13.20;99.90;;;;;;4996064;28;20314;-68
2022/10/28 02:54:10;;;;;;;0.00;0.00;;;13.20;99.90;;;;;;5005569;28;20172;-69
2022/10/28 02:56:44;;;;;;;0.00;0.00;;;13.20;99.90;;;;;;5005131;28;20207;-69
2022/10/28 02:59:11;;;;;;;0.00;0.00;;;13.20;99.90;;;;;;4995124;28;20207;-69
2022/10/28 03:01:37;;;;;;;0.00;0.00;;;13.20;99.90;;;;;;4999601;28;20634;-69
2022/10/28 03:04:03;;;;;;;0.00;0.00;;;13.30;99.90;;;;;;5011214;28;20587;-68
2022/10/28 03:06:29;;;;;;;0.00;0.00;;;13.20;99.90;;;;;;5004681;28;20685;-69
2022/10/28 03:08:55;;;;;;;0.08;0.08;;;13.30;99.90;;;;;;5002209;28;20243;-69
2022/10/28 03:11:20;;;;;;;0.13;0.13;;;13.30;99.90;;;;;;4991226;28;20276;-68
2022/10/28 03:13:46;;;;;;;0.00;0.00;;;13.30;99.90;;;;;;4999060;28;20643;-69
2022/10/28 03:16:11;;;;;;;0.00;0.00;;;13.30;99.90;;;;;;5007702;28;20175;-69
2022/10/28 03:18:37;;;;;;;0.00;0.00;;;13.30;99.90;;;;;;5006492;28;20183;-69
2022/10/28 03:21:03;;;;;;;0.10;0.10;;;13.30;99.90;;;;;;4994039;28;20176;-68
2022/10/28 03:23:28;;;;;;;0.00;0.00;;;13.30;99.90;;;;;;4993964;28;20670;-69
2022/10/28 03:25:54;;;;;;;0.10;0.03;;;13.30;99.90;;;;;;5003605;28;20202;-69
2022/10/28 03:28:19;;;;;;;0.00;0.00;;;13.30;99.90;;;;;;5009206;28;20213;-69
2022/10/28 03:30:45;;;;;;;0.00;0.00;;;13.30;99.90;;;;;;5001064;28;20230;-68
2022/10/28 03:33:10;;;;;;;0.38;0.38;;;13.30;99.90;;;;;;4992845;28;20262;-69
2022/10/28 03:35:36;;;;;;;0.60;0.60;;;13.30;99.90;;;;;;4996131;28;20245;-69
2022/10/28 03:38:02;;;;;;;0.20;0.20;;;13.30;99.90;;;;;;4997948;28;20186;-69
2022/10/28 03:40:27;;;;;;;0.00;0.00;;;13.30;99.90;;;;;;5001853;28;20538;-69
2022/10/28 03:42:53;;;;;;;0.00;0.00;;;13.30;99.90;;;;;;5008248;28;20194;-69
2022/10/28 03:45:18;;;;;;;0.00;0.00;;;13.30;99.90;;;;;;4997386;28;20250;-69
2022/10/28 03:47:44;;;;;;;0.08;0.08;;;13.30;99.90;;;;;;5000634;28;20268;-69
2022/10/28 03:50:10;;;;;;;0.00;0.00;;;13.30;99.90;;;;;;5001007;28;20185;-69
2022/10/28 03:52:35;;;;;;;0.00;0.00;;;13.30;99.90;;;;;;4993751;28;20238;-69
2022/10/28 03:55:01;;;;;;;0.10;0.10;;;13.40;99.90;;;;;;5001188;28;20564;-69
2022/10/28 03:57:30;;;;;;;0.10;0.10;;;13.40;99.90;;;;;;5008046;28;20642;-69
2022/10/28 03:59:55;;;;;;;0.00;0.00;;;13.40;99.90;;;;;;5009721;28;20655;-68
2022/10/28 04:02:21;;;;;;;0.08;0.08;;;13.40;99.90;;;;;;5007479;28;20270;-71
2022/10/28 04:04:47;;;;;;;0.03;0.03;;;13.40;99.90;;;;;;5010307;28;20179;-68
2022/10/28 04:07:12;;;;;;;0.10;0.10;;;13.40;99.90;;;;;;5007002;28;20230;-68
2022/10/28 04:09:38;;;;;;;0.05;0.05;;;13.40;99.90;;;;;;5012169;28;20213;-70
2022/10/28 04:12:04;;;;;;;0.10;0.10;;;13.50;99.90;;;;;;5012061;28;20266;-68
2022/10/28 04:14:30;;;;;;;0.52;0.30;;;13.50;99.90;;;;;;4997108;28;20187;-70
2022/10/28 04:16:55;;;;;;;0.00;0.00;;;13.50;99.90;;;;;;4992206;28;20330;-70
2022/10/28 04:19:21;;;;;;;0.00;0.00;;;13.50;99.90;;;;;;4997506;28;20190;-69
2022/10/28 04:21:46;;;;;;;0.00;0.00;;;13.50;99.90;;;;;;5005047;28;20214;-65
2022/10/28 04:24:12;;;;;;;0.25;0.25;;;13.50;99.90;;;;;;4992602;28;20171;-67
2022/10/28 04:26:37;;;;;;;0.10;0.10;;;13.50;99.90;;;;;;4993293;28;20738;-68
2022/10/28 04:29:03;;;;;;;0.00;0.00;;;13.50;99.90;;;;;;5001582;28;20421;-65
2022/10/28 04:31:29;;;;;;;0.00;0.00;;;13.50;99.90;;;;;;5010244;28;20297;-67
2022/10/28 04:33:55;;;;;;;2.08;0.10;;;13.50;99.90;;;;;;4997699;28;20629;-66
2022/10/28 04:36:20;;;;;;;0.00;0.00;;;13.50;99.90;;;;;;5011564;28;20171;-68
2022/10/28 04:38:46;;;;;;;0.00;0.00;;;13.50;99.90;;;;;;5008903;28;20673;-67
2022/10/28 04:41:13;;;;;;;0.10;0.10;;;13.60;99.90;;;;;;4995645;28;20522;-64
2022/10/28 04:43:38;;;;;;;0.00;0.00;;;13.60;99.90;;;;;;4994578;28;20666;-67
2022/10/28 04:46:04;;;;;;;0.00;0.00;;;13.50;99.90;;;;;;5010637;28;20215;-67
2022/10/28 04:48:31;;;;;;;0.00;0.00;;;13.50;99.90;;;;;;5007812;28;20191;-68
2022/10/28 04:50:57;;;;;;;0.00;0.00;;;13.50;99.90;;;;;;4994190;28;20226;-67
2022/10/28 04:53:22;;;;;;;0.00;0.00;;;13.50;99.90;;;;;;4995441;28;20214;-65
2022/10/28 04:55:48;;;;;;;0.00;0.00;;;13.50;99.90;;;;;;4999584;28;20191;-67
2022/10/28 04:58:13;;;;;;;0.30;0.15;;;13.50;99.90;;;;;;5012506;28;20186;-67
2022/10/28 05:00:39;;;;;;;0.80;0.28;;;13.60;99.90;;;;;;5012574;28;20657;-67
2022/10/28 05:03:04;;;;;;;0.00;0.00;;;13.60;99.90;;;;;;5010274;28;20195;-66
2022/10/28 05:05:30;;;;;;;0.00;0.00;;;13.50;99.90;;;;;;5000086;28;20191;-67
2022/10/28 05:07:55;;;;;;;0.10;0.10;;;13.50;99.90;;;;;;5015131;28;20187;-67
2022/10/28 05:10:21;;;;;;;0.00;0.00;;;13.50;99.90;;;;;;5015216;28;20175;-67
2022/10/28 05:12:47;;;;;;;0.00;0.00;;;13.50;99.90;;;;;;5015323;28;20179;-67
2022/10/28 05:15:13;;;;;;;0.00;0.00;;;13.50;99.90;;;;;;5015198;28;20167;-66
2022/10/28 05:17:41;;;;;;;0.13;0.13;;;13.50;99.90;;;;;;5015244;28;20252;-67
2022/10/28 05:20:08;;;;;;;0.22;0.22;;;13.50;99.90;;;;;;5015040;28;20185;-67
2022/10/28 05:22:34;;;;;;;0.52;0.52;;;13.50;99.90;;;;;;5015342;28;20167;-67
2022/10/28 05:24:59;;;;;;;0.00;0.00;;;13.50;99.90;;;;;;5015116;28;20737;-67
2022/10/28 05:27:25;;;;;;;0.00;0.00;;;13.50;99.90;;;;;;5014902;28;20594;-67
2022/10/28 05:29:50;;;;;;;0.00;0.00;;;13.50;99.90;;;;;;5014898;28;20710;-67
2022/10/28 05:32:16;;;;;;;0.03;0.03;;;13.50;99.90;;;;;;5014804;28;20657;-67
2022/10/28 05:34:41;;;;;;;0.10;0.10;;;13.50;99.90;;;;;;5014929;28;20167;-67
2022/10/28 05:37:07;;;;;;;0.00;0.00;;;13.50;99.90;;;;;;5014827;28;20536;-67
2022/10/28 05:39:32;;;;;;;0.00;0.00;;;13.50;99.90;;;;;;5014975;28;20182;-67
2022/10/28 05:41:58;;;;;;;0.00;0.00;;;13.50;99.90;;;;;;5014911;28;20179;-67
2022/10/28 05:44:23;;;;;;;0.10;0.10;;;13.50;99.90;;;;;;5014603;28;20532;-67
2022/10/28 05:46:49;;;;;;;0.22;0.22;;;13.50;99.90;;;;;;5014672;28;20218;-67
2022/10/28 05:49:19;;;;;;;0.10;0.10;;;13.50;99.90;;;;;;5014643;28;20186;-67
2022/10/28 05:51:45;;;;;;;0.00;0.00;;;13.50;99.90;;;;;;5014815;28;20214;-67
2022/10/28 05:54:10;;;;;;;0.00;0.00;;;13.50;99.90;;;;;;5014537;28;20171;-66
2022/10/28 05:56:36;;;;;;;0.00;0.00;;;13.50;99.90;;;;;;5014700;28;20187;-67
2022/10/28 05:59:01;;;;;;;0.00;0.00;;;13.40;99.90;;;;;;5014592;28;20178;-67
2022/10/28 06:01:27;;;;;;;0.00;0.00;;;13.40;99.90;;;;;;5014307;28;20179;-67
2022/10/28 06:03:52;;;;;;;0.00;0.00;;;13.40;99.90;;;;;;5014464;28;20198;-66
2022/10/28 06:06:18;;;;;;;0.22;0.22;;;13.30;99.90;;;;;;5014246;28;20293;-66
2022/10/28 06:08:43;;;;;;;0.28;0.28;;;13.30;99.90;;;;;;5014157;28;20190;-66
2022/10/28 06:11:09;;;;;;;0.00;0.00;;;13.30;99.90;;;;;;5014286;28;20566;-67
2022/10/28 06:13:34;;;;;;;0.28;0.28;;;13.30;99.90;;;;;;5014206;28;20635;-66
2022/10/28 06:16:00;;;;;;;0.00;0.00;;;13.30;99.90;;;;;;5014110;28;20179;-66
2022/10/28 06:18:26;;;;;;;0.28;0.20;;;13.30;99.90;;;;;;5014058;28;20348;-66
2022/10/28 06:20:57;;;;;;;0.00;0.00;;;13.20;99.90;;;;;;5012741;28;20178;-66
2022/10/28 06:23:23;;;;;;;0.10;0.10;;;13.20;99.90;;;;;;5014006;28;20233;-66
2022/10/28 06:25:49;;;;;;;0.22;0.22;;;13.10;99.90;;;;;;5013861;28;20213;-66
2022/10/28 06:28:15;;;;;;;0.00;0.00;;;13.10;99.90;;;;;;5013848;28;20190;-67
2022/10/28 06:30:40;;;;;;;0.00;0.00;;;13.10;99.90;;;;;;5013687;28;20728;-66
2022/10/28 06:33:06;;;;;;;0.00;0.00;;;13.10;99.90;;;;;;5013660;28;20674;-67
2022/10/28 06:35:31;;;;;;;0.55;0.30;;;13.10;99.90;;;;;;5013794;28;20229;-67
2022/10/28 06:37:57;;;;;;;0.00;0.00;;;13.10;99.90;;;;;;5013925;28;20186;-67
2022/10/28 06:40:26;;;;;;;0.00;0.00;;;13.10;99.90;;;;;;5013622;28;20233;-67
2022/10/28 06:43:03;;;;;;;0.00;0.00;;;13.20;99.90;;;;;;5013651;28;20179;-67
2022/10/28 06:45:30;;;;;;;0.00;0.00;;;13.20;99.90;;;;;;5013600;28;20539;-66
2022/10/28 06:48:00;;;;;;;0.25;0.25;;;13.30;99.90;;;;;;5013595;28;20197;-66
2022/10/28 06:50:27;;;;;;;0.00;0.00;;;13.30;99.90;;;;;;5013445;28;20600;-67
2022/10/28 06:52:54;;;;;;;0.00;0.00;;;13.40;99.90;;;;;;5013427;28;20532;-66
2022/10/28 06:55:20;;;;;;;0.05;0.05;;;13.50;99.90;;;;;;5013424;28;20578;-67
2022/10/28 06:57:46;;;;;;;0.00;0.00;;;13.60;99.90;;;;;;5013286;28;20445;-66
2022/10/28 07:00:12;;;;;;;0.00;0.00;;;13.70;99.90;;;;;;5013311;28;20391;-66
2022/10/28 07:02:37;;;;;;;0.00;0.00;;;13.80;99.90;;;;;;5013379;28;20509;-66
2022/10/28 07:05:03;;;;;;;0.00;0.00;;;13.90;99.90;;;;;;5013261;28;20170;-67
2022/10/28 07:07:28;;;;;;;0.00;0.00;;;14.10;99.90;;;;;;5013038;28;20221;-66
2022/10/28 07:09:54;;;;;;;0.00;0.00;;;14.20;99.90;;;;;;5013415;28;20199;-67
2022/10/28 07:12:20;;;;;;;0.03;0.03;;;14.40;99.90;;;;;;5013327;28;20709;-67
2022/10/28 07:14:45;;;;;;;0.00;0.00;;;14.80;99.90;;;;;;5013080;28;20183;-67
2022/10/28 07:17:10;;;;;;;0.00;0.00;;;15.10;99.90;;;;;;5012997;28;20646;-67
2022/10/28 07:19:36;;;;;;;0.00;0.00;;;15.30;99.90;;;;;;5012769;28;20318;-67
2022/10/28 07:22:02;;;;;;;0.00;0.00;;;15.50;99.90;;;;;;5012726;28;20221;-67
2022/10/28 07:24:27;;;;;;;0.05;0.05;;;15.70;99.90;;;;;;5012967;28;20187;-67
2022/10/28 07:26:53;;;;;;;0.13;0.13;;;16.20;99.90;;;;;;5012858;28;20214;-67
2022/10/28 07:29:18;;;;;;;0.25;0.20;;;16.80;99.90;;;;;;5012848;28;20567;-67
2022/10/28 07:31:44;;;;;;;0.00;0.00;;;17.40;99.90;;;;;;5012888;28;20252;-67
2022/10/28 07:34:09;;;;;;;0.00;0.00;;;17.80;99.90;;;;;;5012686;28;20177;-67
2022/10/28 07:36:35;;;;;;;0.00;0.00;;;18.10;99.90;;;;;;5012801;28;20210;-67
2022/10/28 07:39:00;;;;;;;0.00;0.00;;;18.00;99.90;;;;;;5012771;28;20693;-67
2022/10/28 07:41:26;;;;;;;0.00;0.00;;;17.80;99.90;;;;;;5012657;28;20175;-67
2022/10/28 07:43:52;;;;;;;0.65;0.10;;;17.60;99.90;;;;;;5012629;28;20179;-67
2022/10/28 07:46:18;;;;;;;0.00;0.00;;;17.40;99.90;;;;;;5012297;28;20202;-67
2022/10/28 07:48:44;;;;;;;0.00;0.00;;;17.20;99.90;;;;;;5012536;28;20175;-67
2022/10/28 07:51:12;;;;;;;0.00;0.00;;;17.10;99.90;;;;;;5012463;28;20178;-67
2022/10/28 07:53:38;;;;;;;0.00;0.00;;;16.90;99.90;;;;;;5012577;28;20171;-67
2022/10/28 07:56:08;;;;;;;0.15;0.15;;;16.80;99.90;;;;;;5012464;28;20174;-67
2022/10/28 07:58:34;;;;;;;0.25;0.25;;;16.70;99.90;;;;;;5011304;28;20208;-67
2022/10/28 08:01:05;;;;;;;0.00;0.00;;;16.60;99.90;;;;;;5012482;28;20198;-68
2022/10/28 08:03:31;;;;;;;0.00;0.00;;;16.60;99.90;;;;;;5012377;28;20593;-67
2022/10/28 08:06:12;;;;;;;0.00;0.00;;;16.50;99.90;;;;;;5012275;28;20230;-67
2022/10/28 08:08:38;;;;;;;0.00;0.00;;;16.50;99.90;;;;;;5012371;28;20210;-67
2022/10/28 08:11:17;;;;;;;0.00;0.00;;;16.40;99.90;;;;;;5012243;28;20174;-67
2022/10/28 08:13:43;;;;;;;0.00;0.00;;;16.30;99.90;;;;;;5012279;28;20185;-67
2022/10/28 08:16:09;;;;;;;0.10;0.10;;;16.20;99.90;;;;;;5012160;28;20262;-67
2022/10/28 08:18:36;;;;;;;0.00;0.00;;;16.10;99.90;;;;;;5012424;28;20261;-67
2022/10/28 08:21:03;;;;;;;0.00;0.00;;;16.00;99.90;;;;;;5012245;28;20175;-67
2022/10/28 08:23:29;;;;;;;0.00;0.00;;;15.90;99.90;;;;;;5012138;28;20266;-67
2022/10/28 08:25:55;;;;;;;0.00;0.00;;;15.90;99.90;;;;;;5012051;28;20281;-67
2022/10/28 08:28:21;;;;;;;0.00;0.00;;;15.90;99.90;;;;;;5012139;28;20321;-67
2022/10/28 08:30:47;;;;;;;0.00;0.00;;;15.90;99.90;;;;;;5012013;28;20226;-67
2022/10/28 08:33:13;;;;;;;0.00;0.00;;;15.90;99.90;;;;;;5014154;28;20560;-67
2022/10/28 08:35:38;;;;;;;0.00;0.00;;;16.00;99.90;;;;;;5016173;28;20175;-67
2022/10/28 08:38:04;;;;;;;1.00;0.10;;;16.10;99.90;;;;;;5016046;28;20642;-67
2022/10/28 08:40:52;;;;;;;0.00;0.00;;;16.10;99.90;;;;;;5015927;28;20178;-67
2022/10/28 08:43:42;;;;;;;0.15;0.15;;;16.10;99.90;;;;;;5015768;28;20265;-68
2022/10/28 08:46:47;;;;;;;0.08;0.08;;;16.20;99.90;;;;;;5015615;28;20224;-67
2022/10/28 08:49:17;;;;;;;0.00;0.00;;;16.20;99.90;;;;;;5013729;28;20277;-67
2022/10/28 08:52:09;;;;;;;0.43;0.43;;;16.20;99.90;;;;;;5015831;28;20210;-67
2022/10/28 08:54:46;;;;;;;0.00;0.00;;;16.20;99.90;;;;;;5014548;28;20225;-67
2022/10/28 08:57:15;;;;;;;0.00;0.00;;;16.00;99.90;;;;;;5015618;28;20653;-67
2022/10/28 08:59:43;;;;;;;0.03;0.03;;;16.00;99.90;;;;;;5015616;28;20175;-67
2022/10/28 09:02:21;;;;;;;0.10;0.10;;;15.90;99.90;;;;;;5015494;28;20179;-67
2022/10/28 09:04:51;;;;;;;0.00;0.00;;;15.90;99.90;;;;;;5015699;28;20616;-67
2022/10/28 09:07:20;;;;;;;0.35;0.35;;;16.00;99.90;;;;;;5015338;28;20268;-67
2022/10/28 09:09:47;;;;;;;0.00;0.00;;;16.10;99.90;;;;;;5015414;28;20255;-67
2022/10/28 09:12:27;;;;;;;0.03;0.03;;;16.20;99.90;;;;;;5015214;28;20532;-68
2022/10/28 09:15:21;;;;;;;0.00;0.00;;;16.40;99.90;;;;;;5015478;28;20177;-67
2022/10/28 09:17:56;;;;;;;0.00;0.00;;;16.60;99.90;;;;;;5015317;28;20190;-67
2022/10/28 09:20:53;;;;;;;0.00;0.00;;;16.80;99.90;;;;;;5015178;28;20545;-67
2022/10/28 09:23:22;;;;;;;0.00;0.00;;;16.90;99.90;;;;;;5015126;28;20294;-67
2022/10/28 09:26:07;;;;;;;0.00;0.00;;;17.10;99.90;;;;;;5014989;28;20525;-67
2022/10/28 09:28:58;;;;;;;0.00;0.00;;;17.20;99.90;;;;;;5015066;28;20246;-67
2022/10/28 09:31:34;;;;;;;0.00;0.00;;;17.30;99.90;;;;;;5009340;28;20206;-67
2022/10/28 09:34:36;;;;;;;0.00;0.00;;;17.30;99.90;;;;;;5015086;28;20589;-67
2022/10/28 09:37:26;;;;;;;0.00;0.00;;;17.40;99.90;;;;;;5014894;28;20176;-68
2022/10/28 09:39:56;;;;;;;0.10;0.08;;;17.40;99.90;;;;;;5014877;28;20213;-68
2022/10/28 09:42:28;;;;;;;0.03;0.03;;;17.50;99.90;;;;;;5014747;28;20207;-68
2022/10/28 09:44:58;;;;;;;0.20;0.20;;;17.50;99.90;;;;;;5014167;28;20665;-68
2022/10/28 09:47:34;;;;;;;0.22;0.15;;;17.60;99.90;;;;;;5014649;28;20246;-68
2022/10/28 09:50:02;;;;;;;0.10;0.10;;;17.70;99.90;;;;;;5013544;28;20661;-68
2022/10/28 09:52:33;;;;;;;0.00;0.00;;;17.80;99.90;;;;;;5014559;28;20217;-68
2022/10/28 09:55:06;;;;;;;0.00;0.00;;;17.80;99.90;;;;;;5014526;28;20175;-67
2022/10/28 09:57:32;;;;;;;0.20;0.10;;;17.80;99.90;;;;;;5014574;28;20175;-67
2022/10/28 09:59:58;;;;;;;0.00;0.00;;;17.80;99.90;;;;;;5014711;28;20178;-67
2022/10/28 10:02:32;;;;;;;0.00;0.00;;;17.80;99.90;;;;;;5014388;28;20185;-67
2022/10/28 10:05:00;;;;;;;0.00;0.00;;;17.70;99.90;;;;;;5014543;28;20249;-67
2022/10/28 10:07:34;;;;;;;0.00;0.00;;;17.80;99.90;;;;;;5014145;28;20254;-67
2022/10/28 10:10:11;;;;;;;0.08;0.03;;;17.70;99.90;;;;;;5014355;28;20677;-68
2022/10/28 10:12:38;;;;;;;0.00;0.00;;;17.70;99.90;;;;;;5014403;28;20724;-67
2022/10/28 10:15:05;;;;;;;0.10;0.10;;;17.70;99.90;;;;;;5014242;28;20182;-68
2022/10/28 10:17:40;;;;;;;0.57;0.57;;;17.80;99.90;;;;;;5012739;28;20603;-67
2022/10/28 10:20:07;;;;;;;0.00;0.00;;;17.80;99.90;;;;;;5014037;28;20591;-67
2022/10/28 10:22:34;;;;;;;0.00;0.00;;;17.90;99.90;;;;;;5014056;28;20187;-67
2022/10/28 10:24:59;;;;;;;0.00;0.00;;;17.90;99.90;;;;;;5014028;28;20193;-67
2022/10/28 10:27:27;;;;;;;0.00;0.00;;;17.90;99.90;;;;;;5013756;28;20673;-67
2022/10/28 10:29:54;;;;;;;0.03;0.03;;;18.00;99.90;;;;;;5013964;28;20330;-67
2022/10/28 10:32:32;;;;;;;0.00;0.00;;;18.00;99.90;;;;;;5013826;28;20183;-67
2022/10/28 10:35:05;;;;;;;0.00;0.00;;;18.10;99.90;;;;;;5013870;28;20171;-67
2022/10/28 10:37:33;;;;;;;0.75;0.30;;;18.20;99.90;;;;;;5013694;28;20186;-68
2022/10/28 10:40:17;;;;;;;0.00;0.00;;;18.40;99.90;;;;;;5012538;28;20253;-67
2022/10/28 10:42:42;;;;;;;0.10;0.10;;;18.40;99.90;;;;;;5013829;28;20174;-67
2022/10/28 10:45:28;;;;;;;0.60;0.60;;;18.50;99.90;;;;;;5013450;28;20178;-67
2022/10/28 10:48:12;;;;;;;0.00;0.00;;;18.70;99.90;;;;;;5013110;28;20228;-67
2022/10/28 10:50:38;;;;;;;0.00;0.00;;;18.80;99.90;;;;;;5013711;28;20174;-67
2022/10/28 10:53:04;;;;;;;0.00;0.00;;;18.90;99.90;;;;;;5013473;28;20186;-67
2022/10/28 10:55:37;;;;;;;0.00;0.00;;;19.30;99.90;;;;;;5012502;28;20638;-67
2022/10/28 10:58:05;;;;;;;0.63;0.63;;;19.50;99.90;;;;;;5013386;28;20586;-68
2022/10/28 11:00:43;;;;;;;0.00;0.00;;;19.60;99.90;;;;;;5013454;28;20183;-67
2022/10/28 11:03:21;;;;;;;0.00;0.00;;;19.70;99.90;;;;;;5012069;28;20548;-67
2022/10/28 11:05:53;;;;;;;0.20;0.20;;;19.80;99.90;;;;;;5013241;28;20236;-67
2022/10/28 11:08:35;;;;;;;0.00;0.00;;;19.80;99.90;;;;;;5013170;28;20708;-67
2022/10/28 11:11:19;;;;;;;0.00;0.00;;;19.80;99.90;;;;;;5013329;28;20189;-67
2022/10/28 11:13:46;;;;;;;0.40;0.40;;;19.80;99.90;;;;;;5013227;28;20729;-67
2022/10/28 11:16:23;;;;;;;0.00;0.00;;;19.80;99.90;;;;;;5013066;28;20206;-68
2022/10/28 11:18:52;;;;;;;0.00;0.00;;;19.80;99.90;;;;;;5013113;28;20595;-68
2022/10/28 11:21:35;;;;;;;0.00;0.00;;;19.80;99.90;;;;;;5012921;28;20179;-68
2022/10/28 11:24:28;;;;;;;0.00;0.00;;;19.70;99.90;;;;;;5013118;28;20182;-67
2022/10/28 11:27:10;;;;;;;0.00;0.00;;;19.70;99.90;;;;;;5012972;28;20238;-67
2022/10/28 11:29:35;;;;;;;0.00;0.00;;;19.70;99.90;;;;;;5012785;28;20210;-68
2022/10/28 11:32:01;;;;;;;0.00;0.00;;;19.90;99.90;;;;;;5012982;28;20534;-68
2022/10/28 11:34:42;;;;;;;0.00;0.00;;;20.00;99.90;;;;;;5012740;28;20179;-67
2022/10/28 11:37:17;;;;;;;0.00;0.00;;;20.10;99.90;;;;;;5011740;28;20189;-67
2022/10/28 11:39:43;;;;;;;0.00;0.00;;;20.10;99.90;;;;;;5012851;28;20181;-67
2022/10/28 11:42:49;;;;;;;0.00;0.00;;;20.10;99.90;;;;;;5012702;28;20175;-67
2022/10/28 11:45:25;;;;;;;0.00;0.00;;;20.10;99.90;;;;;;5012568;28;20178;-67
2022/10/28 11:48:24;;;;;;;0.00;0.00;;;20.20;99.90;;;;;;5012546;28;20214;-68
2022/10/28 11:50:57;;;;;;;0.00;0.00;;;20.30;99.90;;;;;;5012579;28;20181;-67
2022/10/28 11:53:44;;;;;;;0.30;0.20;;;20.50;99.90;;;;;;5012568;28;20656;-68
2022/10/28 11:56:32;;;;;;;0.17;0.17;;;20.70;99.90;;;;;;5012530;28;20182;-67
2022/10/28 11:59:04;;;;;;;0.00;0.00;;;21.00;99.90;;;;;;5012573;28;20201;-67
2022/10/28 12:01:46;;;;;;;0.00;0.00;;;21.30;99.90;;;;;;5012781;28;20171;-67
2022/10/28 12:04:16;;;;;;;0.00;0.00;;;21.50;99.90;;;;;;5012469;28;20593;-67
2022/10/28 12:07:00;;;;;;;0.10;0.10;;;21.80;99.90;;;;;;5012273;28;20210;-67
2022/10/28 12:09:43;;;;;;;0.00;0.00;;;22.00;99.90;;;;;;5011032;28;20178;-68
2022/10/28 12:12:28;;;;;;;0.00;0.00;;;22.20;99.90;;;;;;5012298;28;20175;-67
2022/10/28 12:15:16;;;;;;;0.00;0.00;;;22.40;99.90;;;;;;5012430;28;20236;-67
2022/10/28 12:18:00;;;;;;;0.00;0.00;;;22.50;99.90;;;;;;5012466;28;20187;-67
2022/10/28 12:20:31;;;;;;;0.00;0.00;;;22.60;99.90;;;;;;5012247;28;20210;-67
2022/10/28 12:23:01;;;;;;;0.08;0.08;;;22.70;99.90;;;;;;5012397;28;20183;-67
2022/10/28 12:25:31;;;;;;;0.10;0.10;;;22.80;99.90;;;;;;5012084;28;20650;-67
2022/10/28 12:28:01;;;;;;;0.00;0.00;;;22.90;99.90;;;;;;5012081;28;20229;-68
2022/10/28 12:30:31;;;;;;;0.75;0.30;;;23.00;99.90;;;;;;5012013;28;20219;-68
2022/10/28 12:33:03;;;;;;;0.10;0.10;;;23.10;99.90;;;;;;5012172;28;20182;-67
2022/10/28 12:35:35;;;;;;;0.00;0.00;;;23.10;99.90;;;;;;5012109;28;20623;-68
2022/10/28 12:38:13;;;;;;;0.00;0.00;;;23.10;99.90;;;;;;5012219;28;20321;-68
2022/10/28 12:41:06;;;;;;;0.00;0.00;;;23.00;99.90;;;;;;5012115;28;20166;-68
2022/10/28 12:43:44;;;;;;;0.00;0.00;;;23.00;99.90;;;;;;5012164;28;20642;-68
2022/10/28 12:46:21;;;;;;;0.00;0.00;;;23.00;99.90;;;;;;5007324;28;20203;-68
2022/10/28 12:48:59;;;;;;;0.25;0.22;;;23.00;99.90;;;;;;4992396;28;20188;-68
2022/10/28 12:51:32;;;;;;;0.20;0.20;;;23.00;99.90;;;;;;4992425;28;20527;-68
2022/10/28 12:54:06;;;;;;;0.00;0.00;;;23.00;99.90;;;;;;4991173;28;20246;-68
2022/10/28 12:56:38;;;;;;;0.05;0.05;;;23.00;99.90;;;;;;4992460;28;20258;-68
2022/10/28 12:59:16;;;;;;;0.00;0.00;;;23.00;99.90;;;;;;4992355;28;20186;-68
2022/10/28 13:01:45;;;;;;;0.00;0.00;;;23.00;99.90;;;;;;4992482;28;20176;-68
2022/10/28 13:04:12;;;;;;;0.00;0.00;;;23.00;99.90;;;;;;4992304;28;20587;-68
2022/10/28 13:06:56;;;;;;;0.00;0.00;;;23.00;99.90;;;;;;4992361;28;20211;-68
2022/10/28 13:09:57;;;;;;;0.00;0.00;;;23.00;99.90;;;;;;4990942;28;20179;-68